sensor_id;sensor_type;location;lat;lon;timestamp;P1;durP1;ratioP1;P2;durP2;ratioP2
1685;SDS011;840;47.980;7.830;2023-12-22T00:02:17;1.20;;;0.77;;
1685;SDS011;840;47.980;7.830;2023-12-22T00:04:44;4.60;;;1.90;;
1685;SDS011;840;47.980;7.830;2023-12-22T00:07:12;1.50;;;1.10;;
1685;SDS011;840;47.980;7.830;2023-12-22T00:09:38;1.60;;;1.00;;
1685;SDS011;840;47.980;7.830;2023-12-22T00:12:05;1.97;;;1.00;;
1685;SDS011;840;47.980;7.830;2023-12-22T00:14:32;5.60;;;1.20;;
1685;SDS011;840;47.980;7.830;2023-12-22T00:16:59;2.93;;;1.33;;
1685;SDS011;840;47.980;7.830;2023-12-22T00:19:26;3.37;;;1.10;;
1685;SDS011;840;47.980;7.830;2023-12-22T00:21:52;0.83;;;0.83;;
1685;SDS011;840;47.980;7.830;2023-12-22T00:24:20;4.73;;;1.10;;
1685;SDS011;840;47.980;7.830;2023-12-22T00:26:47;1.93;;;1.10;;
1685;SDS011;840;47.980;7.830;2023-12-22T00:29:14;3.20;;;0.90;;
1685;SDS011;840;47.980;7.830;2023-12-22T00:31:40;2.20;;;1.10;;
1685;SDS011;840;47.980;7.830;2023-12-22T00:34:07;4.20;;;0.83;;
1685;SDS011;840;47.980;7.830;2023-12-22T00:36:34;1.83;;;1.10;;
1685;SDS011;840;47.980;7.830;2023-12-22T00:39:00;2.00;;;0.77;;
1685;SDS011;840;47.980;7.830;2023-12-22T00:41:29;1.50;;;1.07;;
1685;SDS011;840;47.980;7.830;2023-12-22T00:43:56;4.30;;;1.07;;
1685;SDS011;840;47.980;7.830;2023-12-22T00:46:23;2.03;;;1.10;;
1685;SDS011;840;47.980;7.830;2023-12-22T00:48:49;3.97;;;1.33;;
1685;SDS011;840;47.980;7.830;2023-12-22T00:51:16;1.20;;;1.10;;
1685;SDS011;840;47.980;7.830;2023-12-22T00:53:42;2.67;;;1.30;;
1685;SDS011;840;47.980;7.830;2023-12-22T00:56:09;1.10;;;0.80;;
1685;SDS011;840;47.980;7.830;2023-12-22T00:58:39;3.63;;;1.27;;
1685;SDS011;840;47.980;7.830;2023-12-22T01:01:06;1.87;;;0.80;;
1685;SDS011;840;47.980;7.830;2023-12-22T01:03:33;3.10;;;1.20;;
1685;SDS011;840;47.980;7.830;2023-12-22T01:05:59;1.73;;;1.13;;
1685;SDS011;840;47.980;7.830;2023-12-22T01:08:26;2.67;;;1.10;;
1685;SDS011;840;47.980;7.830;2023-12-22T01:10:53;1.70;;;1.13;;
1685;SDS011;840;47.980;7.830;2023-12-22T01:13:19;7.17;;;1.43;;
1685;SDS011;840;47.980;7.830;2023-12-22T01:15:47;2.10;;;1.03;;
1685;SDS011;840;47.980;7.830;2023-12-22T01:18:14;1.53;;;0.70;;
1685;SDS011;840;47.980;7.830;2023-12-22T01:20:41;2.10;;;0.73;;
1685;SDS011;840;47.980;7.830;2023-12-22T01:23:08;3.43;;;1.00;;
1685;SDS011;840;47.980;7.830;2023-12-22T01:25:34;1.07;;;0.97;;
1685;SDS011;840;47.980;7.830;2023-12-22T01:28:01;2.00;;;1.13;;
1685;SDS011;840;47.980;7.830;2023-12-22T01:30:28;7.63;;;1.27;;
1685;SDS011;840;47.980;7.830;2023-12-22T01:32:56;5.03;;;1.10;;
1685;SDS011;840;47.980;7.830;2023-12-22T01:35:22;3.70;;;0.97;;
1685;SDS011;840;47.980;7.830;2023-12-22T01:37:49;2.70;;;1.07;;
1685;SDS011;840;47.980;7.830;2023-12-22T01:40:16;1.23;;;1.13;;
1685;SDS011;840;47.980;7.830;2023-12-22T01:42:43;1.17;;;0.70;;
1685;SDS011;840;47.980;7.830;2023-12-22T01:45:10;2.40;;;1.73;;
1685;SDS011;840;47.980;7.830;2023-12-22T01:47:37;3.93;;;1.73;;
1685;SDS011;840;47.980;7.830;2023-12-22T01:50:06;3.83;;;1.50;;
1685;SDS011;840;47.980;7.830;2023-12-22T01:52:35;1.30;;;1.20;;
1685;SDS011;840;47.980;7.830;2023-12-22T01:55:02;1.40;;;1.30;;
1685;SDS011;840;47.980;7.830;2023-12-22T01:57:30;2.33;;;1.27;;
1685;SDS011;840;47.980;7.830;2023-12-22T01:59:57;1.50;;;1.07;;
1685;SDS011;840;47.980;7.830;2023-12-22T02:02:23;2.20;;;1.23;;
1685;SDS011;840;47.980;7.830;2023-12-22T02:04:50;1.57;;;0.93;;
1685;SDS011;840;47.980;7.830;2023-12-22T02:07:19;0.83;;;0.83;;
1685;SDS011;840;47.980;7.830;2023-12-22T02:09:46;2.83;;;1.20;;
1685;SDS011;840;47.980;7.830;2023-12-22T02:12:13;4.27;;;1.67;;
1685;SDS011;840;47.980;7.830;2023-12-22T02:14:40;4.87;;;1.20;;
1685;SDS011;840;47.980;7.830;2023-12-22T02:17:09;2.40;;;1.37;;
1685;SDS011;840;47.980;7.830;2023-12-22T02:19:40;2.67;;;1.00;;
1685;SDS011;840;47.980;7.830;2023-12-22T02:22:08;3.13;;;1.73;;
1685;SDS011;840;47.980;7.830;2023-12-22T02:24:37;3.47;;;1.23;;
1685;SDS011;840;47.980;7.830;2023-12-22T02:27:05;2.23;;;2.00;;
1685;SDS011;840;47.980;7.830;2023-12-22T02:29:41;6.83;;;1.80;;
1685;SDS011;840;47.980;7.830;2023-12-22T02:32:14;2.40;;;1.17;;
1685;SDS011;840;47.980;7.830;2023-12-22T02:34:49;3.50;;;1.67;;
1685;SDS011;840;47.980;7.830;2023-12-22T02:37:18;4.03;;;1.40;;
1685;SDS011;840;47.980;7.830;2023-12-22T02:39:49;1.70;;;0.83;;
1685;SDS011;840;47.980;7.830;2023-12-22T02:42:17;3.07;;;1.10;;
1685;SDS011;840;47.980;7.830;2023-12-22T02:44:48;5.07;;;1.60;;
1685;SDS011;840;47.980;7.830;2023-12-22T02:47:15;1.40;;;1.30;;
1685;SDS011;840;47.980;7.830;2023-12-22T02:49:41;1.50;;;1.40;;
1685;SDS011;840;47.980;7.830;2023-12-22T02:52:08;1.43;;;0.80;;
1685;SDS011;840;47.980;7.830;2023-12-22T02:54:35;4.10;;;1.70;;
1685;SDS011;840;47.980;7.830;2023-12-22T02:57:06;6.33;;;1.10;;
1685;SDS011;840;47.980;7.830;2023-12-22T02:59:32;2.00;;;0.93;;
1685;SDS011;840;47.980;7.830;2023-12-22T03:01:59;2.47;;;1.60;;
1685;SDS011;840;47.980;7.830;2023-12-22T03:04:26;3.77;;;1.57;;
1685;SDS011;840;47.980;7.830;2023-12-22T03:06:52;4.20;;;1.63;;
1685;SDS011;840;47.980;7.830;2023-12-22T03:09:19;6.07;;;1.57;;
1685;SDS011;840;47.980;7.830;2023-12-22T03:11:46;3.63;;;1.03;;
1685;SDS011;840;47.980;7.830;2023-12-22T03:14:14;2.00;;;1.00;;
1685;SDS011;840;47.980;7.830;2023-12-22T03:16:41;5.47;;;1.60;;
1685;SDS011;840;47.980;7.830;2023-12-22T03:19:08;4.37;;;1.50;;
1685;SDS011;840;47.980;7.830;2023-12-22T03:21:35;2.40;;;1.23;;
1685;SDS011;840;47.980;7.830;2023-12-22T03:24:01;6.03;;;2.30;;
1685;SDS011;840;47.980;7.830;2023-12-22T03:26:28;1.50;;;1.40;;
1685;SDS011;840;47.980;7.830;2023-12-22T03:28:55;2.60;;;1.27;;
1685;SDS011;840;47.980;7.830;2023-12-22T03:31:24;4.10;;;1.50;;
1685;SDS011;840;47.980;7.830;2023-12-22T03:33:51;4.03;;;1.60;;
1685;SDS011;840;47.980;7.830;2023-12-22T03:36:18;4.17;;;1.40;;
1685;SDS011;840;47.980;7.830;2023-12-22T03:38:44;5.63;;;1.70;;
1685;SDS011;840;47.980;7.830;2023-12-22T03:41:11;8.20;;;1.27;;
1685;SDS011;840;47.980;7.830;2023-12-22T03:43:38;1.37;;;1.23;;
1685;SDS011;840;47.980;7.830;2023-12-22T03:46:04;1.20;;;0.90;;
1685;SDS011;840;47.980;7.830;2023-12-22T03:48:32;6.40;;;1.50;;
1685;SDS011;840;47.980;7.830;2023-12-22T03:50:59;4.30;;;1.20;;
1685;SDS011;840;47.980;7.830;2023-12-22T03:53:26;1.80;;;0.77;;
1685;SDS011;840;47.980;7.830;2023-12-22T03:55:52;5.13;;;0.90;;
1685;SDS011;840;47.980;7.830;2023-12-22T03:58:19;7.70;;;3.03;;
1685;SDS011;840;47.980;7.830;2023-12-22T04:00:46;3.80;;;1.27;;
1685;SDS011;840;47.980;7.830;2023-12-22T04:03:12;1.33;;;0.90;;
1685;SDS011;840;47.980;7.830;2023-12-22T04:05:41;1.30;;;0.67;;
1685;SDS011;840;47.980;7.830;2023-12-22T04:08:07;2.57;;;1.17;;
1685;SDS011;840;47.980;7.830;2023-12-22T04:10:34;1.60;;;0.90;;
1685;SDS011;840;47.980;7.830;2023-12-22T04:13:01;7.00;;;1.10;;
1685;SDS011;840;47.980;7.830;2023-12-22T04:15:27;1.70;;;1.10;;
1685;SDS011;840;47.980;7.830;2023-12-22T04:17:54;1.20;;;0.90;;
1685;SDS011;840;47.980;7.830;2023-12-22T04:20:21;2.10;;;0.83;;
1685;SDS011;840;47.980;7.830;2023-12-22T04:22:49;1.47;;;0.90;;
1685;SDS011;840;47.980;7.830;2023-12-22T04:25:15;1.70;;;1.13;;
1685;SDS011;840;47.980;7.830;2023-12-22T04:27:43;0.60;;;0.60;;
1685;SDS011;840;47.980;7.830;2023-12-22T04:30:10;2.10;;;1.13;;
1685;SDS011;840;47.980;7.830;2023-12-22T04:32:37;3.03;;;2.47;;
1685;SDS011;840;47.980;7.830;2023-12-22T04:35:04;2.27;;;1.07;;
1685;SDS011;840;47.980;7.830;2023-12-22T04:37:31;3.23;;;1.13;;
1685;SDS011;840;47.980;7.830;2023-12-22T04:39:59;2.00;;;1.53;;
1685;SDS011;840;47.980;7.830;2023-12-22T04:42:26;6.33;;;1.20;;
1685;SDS011;840;47.980;7.830;2023-12-22T04:44:53;2.87;;;1.83;;
1685;SDS011;840;47.980;7.830;2023-12-22T04:47:20;2.80;;;1.20;;
1685;SDS011;840;47.980;7.830;2023-12-22T04:49:46;4.93;;;1.13;;
1685;SDS011;840;47.980;7.830;2023-12-22T04:52:14;4.83;;;1.30;;
1685;SDS011;840;47.980;7.830;2023-12-22T04:54:40;3.73;;;1.57;;
1685;SDS011;840;47.980;7.830;2023-12-22T04:57:08;7.60;;;2.10;;
1685;SDS011;840;47.980;7.830;2023-12-22T04:59:35;2.80;;;1.37;;
1685;SDS011;840;47.980;7.830;2023-12-22T05:02:02;4.27;;;1.90;;
1685;SDS011;840;47.980;7.830;2023-12-22T05:04:29;3.30;;;1.20;;
1685;SDS011;840;47.980;7.830;2023-12-22T05:06:55;3.40;;;1.43;;
1685;SDS011;840;47.980;7.830;2023-12-22T05:09:22;10.13;;;1.90;;
1685;SDS011;840;47.980;7.830;2023-12-22T05:11:50;6.07;;;1.83;;
1685;SDS011;840;47.980;7.830;2023-12-22T05:14:18;4.90;;;2.03;;
1685;SDS011;840;47.980;7.830;2023-12-22T05:16:45;4.40;;;1.70;;
1685;SDS011;840;47.980;7.830;2023-12-22T05:19:11;5.43;;;1.83;;
1685;SDS011;840;47.980;7.830;2023-12-22T05:21:38;3.93;;;1.70;;
1685;SDS011;840;47.980;7.830;2023-12-22T05:24:05;4.13;;;2.40;;
1685;SDS011;840;47.980;7.830;2023-12-22T05:26:31;5.77;;;2.97;;
1685;SDS011;840;47.980;7.830;2023-12-22T05:28:58;5.67;;;1.40;;
1685;SDS011;840;47.980;7.830;2023-12-22T05:31:26;4.30;;;1.83;;
1685;SDS011;840;47.980;7.830;2023-12-22T05:33:53;4.03;;;1.70;;
1685;SDS011;840;47.980;7.830;2023-12-22T05:36:20;5.30;;;2.90;;
1685;SDS011;840;47.980;7.830;2023-12-22T05:38:47;6.63;;;2.03;;
1685;SDS011;840;47.980;7.830;2023-12-22T05:41:14;6.33;;;1.53;;
1685;SDS011;840;47.980;7.830;2023-12-22T05:43:40;7.33;;;2.20;;
1685;SDS011;840;47.980;7.830;2023-12-22T05:46:07;5.10;;;2.03;;
1685;SDS011;840;47.980;7.830;2023-12-22T05:48:37;5.13;;;2.17;;
1685;SDS011;840;47.980;7.830;2023-12-22T05:51:03;7.93;;;2.75;;
1685;SDS011;840;47.980;7.830;2023-12-22T05:53:32;9.48;;;2.33;;
1685;SDS011;840;47.980;7.830;2023-12-22T05:55:59;10.93;;;2.40;;
1685;SDS011;840;47.980;7.830;2023-12-22T05:58:25;5.60;;;1.90;;
1685;SDS011;840;47.980;7.830;2023-12-22T06:00:52;6.43;;;2.07;;
1685;SDS011;840;47.980;7.830;2023-12-22T06:03:19;8.00;;;2.60;;
1685;SDS011;840;47.980;7.830;2023-12-22T06:05:47;5.23;;;2.43;;
1685;SDS011;840;47.980;7.830;2023-12-22T06:08:14;8.00;;;3.23;;
1685;SDS011;840;47.980;7.830;2023-12-22T06:10:40;8.10;;;2.60;;
1685;SDS011;840;47.980;7.830;2023-12-22T06:13:07;8.23;;;2.50;;
1685;SDS011;840;47.980;7.830;2023-12-22T06:15:34;5.47;;;2.27;;
1685;SDS011;840;47.980;7.830;2023-12-22T06:18:00;6.30;;;2.40;;
1685;SDS011;840;47.980;7.830;2023-12-22T06:20:27;5.00;;;2.07;;
1685;SDS011;840;47.980;7.830;2023-12-22T06:22:55;6.27;;;3.33;;
1685;SDS011;840;47.980;7.830;2023-12-22T06:25:22;5.88;;;3.20;;
1685;SDS011;840;47.980;7.830;2023-12-22T06:27:48;11.13;;;4.30;;
1685;SDS011;840;47.980;7.830;2023-12-22T06:30:15;10.57;;;3.60;;
1685;SDS011;840;47.980;7.830;2023-12-22T06:32:45;15.53;;;3.73;;
1685;SDS011;840;47.980;7.830;2023-12-22T06:35:13;12.77;;;3.23;;
1685;SDS011;840;47.980;7.830;2023-12-22T06:37:39;8.63;;;2.23;;
1685;SDS011;840;47.980;7.830;2023-12-22T06:40:09;7.70;;;3.13;;
1685;SDS011;840;47.980;7.830;2023-12-22T06:42:36;6.60;;;3.63;;
1685;SDS011;840;47.980;7.830;2023-12-22T06:45:03;8.97;;;3.27;;
1685;SDS011;840;47.980;7.830;2023-12-22T06:47:30;7.57;;;2.73;;
1685;SDS011;840;47.980;7.830;2023-12-22T06:49:57;10.63;;;2.43;;
1685;SDS011;840;47.980;7.830;2023-12-22T06:52:24;6.23;;;2.70;;
1685;SDS011;840;47.980;7.830;2023-12-22T06:54:50;3.83;;;1.87;;
1685;SDS011;840;47.980;7.830;2023-12-22T06:57:19;5.53;;;2.83;;
1685;SDS011;840;47.980;7.830;2023-12-22T06:59:46;8.10;;;2.87;;
1685;SDS011;840;47.980;7.830;2023-12-22T07:02:13;5.00;;;2.63;;
1685;SDS011;840;47.980;7.830;2023-12-22T07:04:59;4.70;;;2.30;;
1685;SDS011;840;47.980;7.830;2023-12-22T07:07:30;7.27;;;2.30;;
1685;SDS011;840;47.980;7.830;2023-12-22T07:09:56;9.90;;;2.70;;
1685;SDS011;840;47.980;7.830;2023-12-22T07:12:24;8.97;;;2.33;;
1685;SDS011;840;47.980;7.830;2023-12-22T07:14:51;6.30;;;2.43;;
1685;SDS011;840;47.980;7.830;2023-12-22T07:17:18;6.10;;;2.17;;
1685;SDS011;840;47.980;7.830;2023-12-22T07:19:45;4.50;;;2.33;;
1685;SDS011;840;47.980;7.830;2023-12-22T07:22:12;4.47;;;1.93;;
1685;SDS011;840;47.980;7.830;2023-12-22T07:24:40;10.23;;;2.73;;
1685;SDS011;840;47.980;7.830;2023-12-22T07:27:07;3.60;;;1.60;;
1685;SDS011;840;47.980;7.830;2023-12-22T07:29:35;8.13;;;2.37;;
1685;SDS011;840;47.980;7.830;2023-12-22T07:32:02;8.03;;;2.57;;
1685;SDS011;840;47.980;7.830;2023-12-22T07:34:29;7.30;;;2.50;;
1685;SDS011;840;47.980;7.830;2023-12-22T07:36:55;9.57;;;2.90;;
1685;SDS011;840;47.980;7.830;2023-12-22T07:39:22;6.43;;;2.90;;
1685;SDS011;840;47.980;7.830;2023-12-22T07:41:49;5.30;;;2.10;;
1685;SDS011;840;47.980;7.830;2023-12-22T07:44:15;6.10;;;2.57;;
1685;SDS011;840;47.980;7.830;2023-12-22T07:46:43;8.27;;;2.60;;
1685;SDS011;840;47.980;7.830;2023-12-22T07:49:10;6.40;;;2.73;;
1685;SDS011;840;47.980;7.830;2023-12-22T07:51:37;10.13;;;3.60;;
1685;SDS011;840;47.980;7.830;2023-12-22T07:54:04;4.37;;;2.20;;
1685;SDS011;840;47.980;7.830;2023-12-22T07:56:31;4.87;;;2.60;;
1685;SDS011;840;47.980;7.830;2023-12-22T07:58:58;5.70;;;2.00;;
1685;SDS011;840;47.980;7.830;2023-12-22T08:01:27;10.63;;;3.37;;
1685;SDS011;840;47.980;7.830;2023-12-22T08:03:55;4.17;;;2.20;;
1685;SDS011;840;47.980;7.830;2023-12-22T08:06:22;5.63;;;1.90;;
1685;SDS011;840;47.980;7.830;2023-12-22T08:08:49;5.00;;;2.10;;
1685;SDS011;840;47.980;7.830;2023-12-22T08:11:15;7.70;;;2.70;;
1685;SDS011;840;47.980;7.830;2023-12-22T08:13:44;6.57;;;2.20;;
1685;SDS011;840;47.980;7.830;2023-12-22T08:16:11;8.83;;;2.17;;
1685;SDS011;840;47.980;7.830;2023-12-22T08:18:38;11.47;;;2.43;;
1685;SDS011;840;47.980;7.830;2023-12-22T08:21:06;3.83;;;1.77;;
1685;SDS011;840;47.980;7.830;2023-12-22T08:23:32;6.67;;;2.50;;
1685;SDS011;840;47.980;7.830;2023-12-22T08:25:59;6.40;;;1.80;;
1685;SDS011;840;47.980;7.830;2023-12-22T08:28:26;8.03;;;1.83;;
1685;SDS011;840;47.980;7.830;2023-12-22T08:30:52;2.83;;;1.90;;
1685;SDS011;840;47.980;7.830;2023-12-22T08:33:19;9.20;;;3.00;;
1685;SDS011;840;47.980;7.830;2023-12-22T08:35:46;9.60;;;2.97;;
1685;SDS011;840;47.980;7.830;2023-12-22T08:38:14;4.60;;;2.17;;
1685;SDS011;840;47.980;7.830;2023-12-22T08:40:41;7.17;;;2.43;;
1685;SDS011;840;47.980;7.830;2023-12-22T08:43:08;4.10;;;2.70;;
1685;SDS011;840;47.980;7.830;2023-12-22T08:45:34;6.80;;;3.23;;
1685;SDS011;840;47.980;7.830;2023-12-22T08:48:01;5.93;;;3.00;;
1685;SDS011;840;47.980;7.830;2023-12-22T08:50:32;6.30;;;2.33;;
1685;SDS011;840;47.980;7.830;2023-12-22T08:52:59;8.23;;;2.57;;
1685;SDS011;840;47.980;7.830;2023-12-22T08:55:27;6.27;;;2.73;;
1685;SDS011;840;47.980;7.830;2023-12-22T08:57:54;5.13;;;2.40;;
1685;SDS011;840;47.980;7.830;2023-12-22T09:00:21;9.07;;;2.83;;
1685;SDS011;840;47.980;7.830;2023-12-22T09:02:48;4.97;;;2.10;;
1685;SDS011;840;47.980;7.830;2023-12-22T09:05:14;5.40;;;1.80;;
1685;SDS011;840;47.980;7.830;2023-12-22T09:07:43;6.00;;;3.00;;
1685;SDS011;840;47.980;7.830;2023-12-22T09:10:09;3.37;;;2.30;;
1685;SDS011;840;47.980;7.830;2023-12-22T09:12:39;3.97;;;1.90;;
1685;SDS011;840;47.980;7.830;2023-12-22T09:15:05;8.07;;;1.83;;
1685;SDS011;840;47.980;7.830;2023-12-22T09:17:32;5.37;;;2.37;;
1685;SDS011;840;47.980;7.830;2023-12-22T09:19:59;7.27;;;2.97;;
1685;SDS011;840;47.980;7.830;2023-12-22T09:22:26;8.23;;;3.70;;
1685;SDS011;840;47.980;7.830;2023-12-22T09:24:53;9.30;;;2.80;;
1685;SDS011;840;47.980;7.830;2023-12-22T09:27:19;8.40;;;2.63;;
1685;SDS011;840;47.980;7.830;2023-12-22T09:29:47;7.63;;;2.70;;
1685;SDS011;840;47.980;7.830;2023-12-22T09:32:14;3.53;;;2.60;;
1685;SDS011;840;47.980;7.830;2023-12-22T09:34:41;8.77;;;2.63;;
1685;SDS011;840;47.980;7.830;2023-12-22T09:37:07;12.60;;;4.50;;
1685;SDS011;840;47.980;7.830;2023-12-22T09:39:34;5.13;;;3.17;;
1685;SDS011;840;47.980;7.830;2023-12-22T09:42:00;9.53;;;4.83;;
1685;SDS011;840;47.980;7.830;2023-12-22T09:44:26;6.50;;;2.93;;
1685;SDS011;840;47.980;7.830;2023-12-22T09:47:00;6.37;;;2.30;;
1685;SDS011;840;47.980;7.830;2023-12-22T09:49:29;6.90;;;3.30;;
1685;SDS011;840;47.980;7.830;2023-12-22T09:51:56;7.90;;;3.93;;
1685;SDS011;840;47.980;7.830;2023-12-22T09:54:23;5.50;;;2.27;;
1685;SDS011;840;47.980;7.830;2023-12-22T09:56:51;5.23;;;2.03;;
1685;SDS011;840;47.980;7.830;2023-12-22T09:59:19;4.80;;;2.50;;
1685;SDS011;840;47.980;7.830;2023-12-22T10:01:49;8.13;;;2.80;;
1685;SDS011;840;47.980;7.830;2023-12-22T10:04:18;5.43;;;2.07;;
1685;SDS011;840;47.980;7.830;2023-12-22T10:06:45;10.37;;;3.30;;
1685;SDS011;840;47.980;7.830;2023-12-22T10:09:14;6.90;;;3.30;;
1685;SDS011;840;47.980;7.830;2023-12-22T10:11:42;8.37;;;2.30;;
1685;SDS011;840;47.980;7.830;2023-12-22T10:14:10;5.13;;;2.00;;
1685;SDS011;840;47.980;7.830;2023-12-22T10:16:38;4.63;;;1.77;;
1685;SDS011;840;47.980;7.830;2023-12-22T10:19:06;8.60;;;2.50;;
1685;SDS011;840;47.980;7.830;2023-12-22T10:21:35;8.40;;;2.27;;
1685;SDS011;840;47.980;7.830;2023-12-22T10:24:02;3.50;;;1.90;;
1685;SDS011;840;47.980;7.830;2023-12-22T10:26:29;8.53;;;2.47;;
1685;SDS011;840;47.980;7.830;2023-12-22T10:28:56;2.80;;;2.37;;
1685;SDS011;840;47.980;7.830;2023-12-22T10:31:22;5.17;;;2.33;;
1685;SDS011;840;47.980;7.830;2023-12-22T10:33:50;5.80;;;2.10;;
1685;SDS011;840;47.980;7.830;2023-12-22T10:36:17;3.63;;;1.60;;
1685;SDS011;840;47.980;7.830;2023-12-22T10:38:45;3.23;;;1.43;;
1685;SDS011;840;47.980;7.830;2023-12-22T10:41:12;4.90;;;2.23;;
1685;SDS011;840;47.980;7.830;2023-12-22T10:43:39;3.27;;;1.37;;
1685;SDS011;840;47.980;7.830;2023-12-22T10:46:06;6.43;;;1.93;;
1685;SDS011;840;47.980;7.830;2023-12-22T10:48:35;8.53;;;1.80;;
1685;SDS011;840;47.980;7.830;2023-12-22T10:51:02;6.80;;;1.83;;
1685;SDS011;840;47.980;7.830;2023-12-22T10:53:35;2.80;;;1.48;;
1685;SDS011;840;47.980;7.830;2023-12-22T10:56:03;5.87;;;1.60;;
1685;SDS011;840;47.980;7.830;2023-12-22T10:58:30;4.53;;;1.60;;
1685;SDS011;840;47.980;7.830;2023-12-22T11:00:57;4.30;;;1.00;;
1685;SDS011;840;47.980;7.830;2023-12-22T11:03:25;2.17;;;0.90;;
1685;SDS011;840;47.980;7.830;2023-12-22T11:05:55;3.00;;;1.70;;
1685;SDS011;840;47.980;7.830;2023-12-22T11:08:24;1.47;;;1.23;;
1685;SDS011;840;47.980;7.830;2023-12-22T11:10:53;2.50;;;1.37;;
1685;SDS011;840;47.980;7.830;2023-12-22T11:13:26;1.37;;;1.10;;
1685;SDS011;840;47.980;7.830;2023-12-22T11:15:52;7.90;;;1.87;;
1685;SDS011;840;47.980;7.830;2023-12-22T11:18:20;2.03;;;1.10;;
1685;SDS011;840;47.980;7.830;2023-12-22T11:20:48;5.20;;;1.57;;
1685;SDS011;840;47.980;7.830;2023-12-22T11:23:17;1.90;;;1.00;;
1685;SDS011;840;47.980;7.830;2023-12-22T11:25:45;1.33;;;1.20;;
1685;SDS011;840;47.980;7.830;2023-12-22T11:28:18;1.23;;;1.00;;
1685;SDS011;840;47.980;7.830;2023-12-22T11:30:48;1.33;;;0.97;;
1685;SDS011;840;47.980;7.830;2023-12-22T11:33:17;2.53;;;2.27;;
1685;SDS011;840;47.980;7.830;2023-12-22T11:35:44;2.20;;;0.93;;
1685;SDS011;840;47.980;7.830;2023-12-22T11:38:12;2.20;;;1.00;;
1685;SDS011;840;47.980;7.830;2023-12-22T11:40:39;3.60;;;1.80;;
1685;SDS011;840;47.980;7.830;2023-12-22T11:43:06;1.63;;;1.53;;
1685;SDS011;840;47.980;7.830;2023-12-22T11:45:34;3.73;;;0.93;;
1685;SDS011;840;47.980;7.830;2023-12-22T11:48:11;1.20;;;1.03;;
1685;SDS011;840;47.980;7.830;2023-12-22T11:50:38;2.50;;;1.30;;
1685;SDS011;840;47.980;7.830;2023-12-22T11:55:58;1.17;;;1.00;;
1685;SDS011;840;47.980;7.830;2023-12-22T11:58:34;1.33;;;0.90;;
1685;SDS011;840;47.980;7.830;2023-12-22T12:01:05;1.60;;;0.87;;
1685;SDS011;840;47.980;7.830;2023-12-22T12:03:35;1.17;;;1.07;;
1685;SDS011;840;47.980;7.830;2023-12-22T12:08:58;0.80;;;0.80;;
1685;SDS011;840;47.980;7.830;2023-12-22T12:14:40;0.80;;;0.73;;
1685;SDS011;840;47.980;7.830;2023-12-22T12:17:08;1.38;;;0.93;;
1685;SDS011;840;47.980;7.830;2023-12-22T12:19:36;1.77;;;1.00;;
1685;SDS011;840;47.980;7.830;2023-12-22T12:22:04;0.50;;;0.50;;
1685;SDS011;840;47.980;7.830;2023-12-22T12:24:31;1.53;;;1.43;;
1685;SDS011;840;47.980;7.830;2023-12-22T12:26:57;0.80;;;0.80;;
1685;SDS011;840;47.980;7.830;2023-12-22T12:29:24;0.90;;;0.70;;
1685;SDS011;840;47.980;7.830;2023-12-22T12:31:51;0.70;;;0.70;;
1685;SDS011;840;47.980;7.830;2023-12-22T12:34:18;0.60;;;0.60;;
1685;SDS011;840;47.980;7.830;2023-12-22T12:36:47;1.47;;;1.00;;
1685;SDS011;840;47.980;7.830;2023-12-22T12:39:15;1.23;;;0.70;;
1685;SDS011;840;47.980;7.830;2023-12-22T12:41:44;2.87;;;0.73;;
1685;SDS011;840;47.980;7.830;2023-12-22T12:44:18;1.10;;;0.60;;
1685;SDS011;840;47.980;7.830;2023-12-22T12:46:48;3.80;;;0.77;;
1685;SDS011;840;47.980;7.830;2023-12-22T12:49:15;0.40;;;0.40;;
1685;SDS011;840;47.980;7.830;2023-12-22T12:51:42;1.20;;;0.67;;
1685;SDS011;840;47.980;7.830;2023-12-22T12:54:16;0.60;;;0.60;;
1685;SDS011;840;47.980;7.830;2023-12-22T12:56:51;0.57;;;0.57;;
1685;SDS011;840;47.980;7.830;2023-12-22T12:59:18;0.40;;;0.40;;
1685;SDS011;840;47.980;7.830;2023-12-22T13:01:45;0.80;;;0.80;;
1685;SDS011;840;47.980;7.830;2023-12-22T13:04:12;0.50;;;0.50;;
1685;SDS011;840;47.980;7.830;2023-12-22T13:06:43;1.73;;;0.60;;
1685;SDS011;840;47.980;7.830;2023-12-22T13:09:11;1.80;;;1.03;;
1685;SDS011;840;47.980;7.830;2023-12-22T13:11:39;0.70;;;0.70;;
1685;SDS011;840;47.980;7.830;2023-12-22T13:14:07;0.50;;;0.50;;
1685;SDS011;840;47.980;7.830;2023-12-22T13:16:33;0.47;;;0.47;;
1685;SDS011;840;47.980;7.830;2023-12-22T13:19:00;0.50;;;0.50;;
1685;SDS011;840;47.980;7.830;2023-12-22T13:21:28;0.90;;;0.50;;
1685;SDS011;840;47.980;7.830;2023-12-22T13:24:07;0.77;;;0.70;;
1685;SDS011;840;47.980;7.830;2023-12-22T13:26:36;0.80;;;0.40;;
1685;SDS011;840;47.980;7.830;2023-12-22T13:29:03;1.03;;;0.73;;
1685;SDS011;840;47.980;7.830;2023-12-22T13:31:30;1.70;;;0.90;;
1685;SDS011;840;47.980;7.830;2023-12-22T13:33:57;0.50;;;0.50;;
1685;SDS011;840;47.980;7.830;2023-12-22T13:36:24;0.83;;;0.50;;
1685;SDS011;840;47.980;7.830;2023-12-22T13:38:51;0.77;;;0.50;;
1685;SDS011;840;47.980;7.830;2023-12-22T13:41:18;0.70;;;0.70;;
1685;SDS011;840;47.980;7.830;2023-12-22T13:43:47;0.60;;;0.60;;
1685;SDS011;840;47.980;7.830;2023-12-22T13:46:13;0.60;;;0.60;;
1685;SDS011;840;47.980;7.830;2023-12-22T13:48:40;0.40;;;0.40;;
1685;SDS011;840;47.980;7.830;2023-12-22T13:51:07;1.40;;;0.50;;
1685;SDS011;840;47.980;7.830;2023-12-22T13:53:35;0.57;;;0.57;;
1685;SDS011;840;47.980;7.830;2023-12-22T13:56:02;0.60;;;0.60;;
1685;SDS011;840;47.980;7.830;2023-12-22T13:58:28;1.27;;;0.80;;
1685;SDS011;840;47.980;7.830;2023-12-22T14:00:56;3.33;;;0.50;;
1685;SDS011;840;47.980;7.830;2023-12-22T14:03:23;0.97;;;0.50;;
1685;SDS011;840;47.980;7.830;2023-12-22T14:05:50;0.47;;;0.47;;
1685;SDS011;840;47.980;7.830;2023-12-22T14:08:20;0.50;;;0.50;;
1685;SDS011;840;47.980;7.830;2023-12-22T14:10:47;0.60;;;0.60;;
1685;SDS011;840;47.980;7.830;2023-12-22T14:13:14;0.63;;;0.60;;
1685;SDS011;840;47.980;7.830;2023-12-22T14:15:41;0.70;;;0.50;;
1685;SDS011;840;47.980;7.830;2023-12-22T14:18:10;0.53;;;0.50;;
1685;SDS011;840;47.980;7.830;2023-12-22T14:20:37;2.13;;;1.00;;
1685;SDS011;840;47.980;7.830;2023-12-22T14:23:04;0.70;;;0.70;;
1685;SDS011;840;47.980;7.830;2023-12-22T14:25:30;0.57;;;0.57;;
1685;SDS011;840;47.980;7.830;2023-12-22T14:27:57;0.90;;;0.80;;
1685;SDS011;840;47.980;7.830;2023-12-22T14:30:24;1.17;;;0.90;;
1685;SDS011;840;47.980;7.830;2023-12-22T14:32:51;1.90;;;0.70;;
1685;SDS011;840;47.980;7.830;2023-12-22T14:35:19;0.83;;;0.77;;
1685;SDS011;840;47.980;7.830;2023-12-22T14:37:46;1.00;;;1.00;;
1685;SDS011;840;47.980;7.830;2023-12-22T14:40:13;0.80;;;0.80;;
1685;SDS011;840;47.980;7.830;2023-12-22T14:42:39;0.70;;;0.70;;
1685;SDS011;840;47.980;7.830;2023-12-22T14:45:06;1.07;;;0.97;;
1685;SDS011;840;47.980;7.830;2023-12-22T14:47:34;1.13;;;0.67;;
1685;SDS011;840;47.980;7.830;2023-12-22T14:50:01;0.70;;;0.70;;
1685;SDS011;840;47.980;7.830;2023-12-22T14:52:30;0.97;;;0.97;;
1685;SDS011;840;47.980;7.830;2023-12-22T14:54:57;0.87;;;0.87;;
1685;SDS011;840;47.980;7.830;2023-12-22T14:57:24;1.30;;;1.00;;
1685;SDS011;840;47.980;7.830;2023-12-22T14:59:51;0.87;;;0.63;;
1685;SDS011;840;47.980;7.830;2023-12-22T15:02:18;2.07;;;1.77;;
1685;SDS011;840;47.980;7.830;2023-12-22T15:04:45;2.20;;;1.40;;
1685;SDS011;840;47.980;7.830;2023-12-22T15:07:14;0.77;;;0.73;;
1685;SDS011;840;47.980;7.830;2023-12-22T15:09:42;1.37;;;0.70;;
1685;SDS011;840;47.980;7.830;2023-12-22T15:12:09;0.70;;;0.70;;
1685;SDS011;840;47.980;7.830;2023-12-22T15:14:36;1.17;;;1.00;;
1685;SDS011;840;47.980;7.830;2023-12-22T15:17:03;1.50;;;0.50;;
1685;SDS011;840;47.980;7.830;2023-12-22T15:19:29;0.60;;;0.53;;
1685;SDS011;840;47.980;7.830;2023-12-22T15:21:56;0.67;;;0.53;;
1685;SDS011;840;47.980;7.830;2023-12-22T15:24:23;1.63;;;1.00;;
1685;SDS011;840;47.980;7.830;2023-12-22T15:26:52;0.60;;;0.60;;
1685;SDS011;840;47.980;7.830;2023-12-22T15:29:19;1.03;;;0.93;;
1685;SDS011;840;47.980;7.830;2023-12-22T15:31:46;0.60;;;0.60;;
1685;SDS011;840;47.980;7.830;2023-12-22T15:34:14;0.77;;;0.70;;
1685;SDS011;840;47.980;7.830;2023-12-22T15:36:41;1.70;;;0.57;;
1685;SDS011;840;47.980;7.830;2023-12-22T15:39:07;0.50;;;0.50;;
1685;SDS011;840;47.980;7.830;2023-12-22T15:41:34;0.70;;;0.70;;